Flight Track Log - Related Links

Times and Time Zones

All times are in EDT time to prevent confusion due to time zone crossing. See the MTN7955 flight status page for this flight to view local times or setup timezone preferences in your user account.

Time Position Orientation Groundspeed Altitude Reporting Facility
EDT Latitude Longitude Course Direction KTS MPH feet Rate Location/Type
Thu 11:53:31 PM 32.4506 -93.8364 306° West 122 140 1,000  Level Fort Worth Center
Thu 11:54:38 PM 32.4725 -93.8725 306° West 148 170 2,800 1,606 Climbing Fort Worth Center
Thu 11:55:38 PM 32.4639 -93.9344 261° West 196 226 4,400 1,605 Climbing Fort Worth Center
Thu 11:57:15 PM 32.4644 -94.0303 270° West 189 217 7,000 1,529 Climbing Fort Worth Center
Thu 11:58:15 PM 32.4597 -94.0919 265° West 194 223 8,400 1,400 Climbing Fort Worth Center
Thu 11:59:15 PM 32.4572 -94.1536 267° West 193 222 9,800 1,250 Climbing Fort Worth Center
Fri 12:00:15 AM 32.4525 -94.2178 265° West 193 222 10,900 1,150 Climbing Fort Worth Center
Fri 12:01:15 AM 32.4500 -94.2794 267° West 198 228 12,100 1,100 Climbing Fort Worth Center
Fri 12:02:15 AM 32.4453 -94.3436 265° West 198 228 13,100 1,050 Climbing Fort Worth Center
Fri 12:03:15 AM 32.4425 -94.4053 267° West 198 228 14,200 1,000 Climbing Fort Worth Center
Fri 12:04:15 AM 32.4378 -94.4719 265° West 198 228 15,100 900 Climbing Fort Worth Center
Fri 12:05:15 AM 32.4331 -94.5361 265° West 198 228 16,000 450 Climbing Fort Worth Center
Fri 12:06:15 AM 32.4286 -94.6075 266° West 210 242 16,000  Level Fort Worth Center
Fri 12:07:15 AM 32.4197 -94.6817 262° West 228 262 16,000 -50 Level Fort Worth Center
Fri 12:08:15 AM 32.4131 -94.7631 264° West 240 276 15,900 -50 Descending Fort Worth Center
Fri 12:09:15 AM 32.4064 -94.8469 265° West 253 291 15,900 50 Level Fort Worth Center
Fri 12:10:15 AM 32.3914 -94.9286 258° West 258 297 16,000 50 Climbing Fort Worth Center
Fri 12:11:15 AM 32.3928 -95.0072 271° West 258 297 16,000 -50 Level Fort Worth Center
Fri 12:12:15 AM 32.3883 -95.0911 266° West 258 297 15,900 -50 Descending Fort Worth Center
Fri 12:13:15 AM 32.3814 -95.1747 264° West 258 297 15,900  Level Fort Worth Center
Fri 12:14:15 AM 32.3786 -95.2561 268° West 253 291 15,900 100 Level Fort Worth Center
Fri 12:15:15 AM 32.3736 -95.3372 266° West 253 291 16,100 100 Climbing Fort Worth Center
Fri 12:16:15 AM 32.3667 -95.4186 264° West 258 297 16,100  Level Fort Worth Center
Fri 12:17:15 AM 32.3639 -95.5000 268° West 253 291 16,100 -550 Level Fort Worth Center
Fri 12:18:15 AM 32.3567 -95.5861 264° West 258 297 15,000 -1,200 Descending Fort Worth Center
Fri 12:19:15 AM 32.3536 -95.6647 267° West 258 297 13,700 -1,450 Descending Fort Worth Center
Fri 12:20:15 AM 32.3464 -95.7486 264° West 258 297 12,100 -1,600 Descending Fort Worth Center
Fri 12:21:15 AM 32.3411 -95.8297 266° West 258 297 10,500 -1,550 Descending Fort Worth Center
Fri 12:22:15 AM 32.3319 -95.9258 264° West 258 297 9,000 -1,200 Descending Fort Worth Center
Fri 12:23:15 AM 32.3267 -96.0119 266° West 264 304 8,100 -500 Descending Fort Worth Center
Fri 12:24:15 AM 32.3211 -96.0908 265° West 264 304 8,000 -50 Descending Fort Worth Center
Fri 12:25:15 AM 32.3158 -96.1867 266° West 269 310 8,000  Level Fort Worth Center
Fri 12:26:15 AM 32.3083 -96.2631 263° West 269 310 8,000  Level Fort Worth Center
Fri 12:27:15 AM 32.3028 -96.3589 266° West 269 310 8,000  Level Fort Worth Center
Fri 12:28:15 AM 32.2953 -96.4353 263° West 269 310 8,000  Level Fort Worth Center
Fri 12:29:15 AM 32.2897 -96.5286 266° West 269 310 8,000  Level Fort Worth Center
Fri 12:30:15 AM 32.2983 -96.6022 278° West 262 302 8,000  Level Fort Worth Center
Fri 12:31:15 AM 32.3406 -96.6806 303° West 252 290 8,000  Level Fort Worth Center
Fri 12:32:15 AM 32.3639 -96.7517 291° West 252 290 8,000 -200 Level Fort Worth Center
Fri 12:33:15 AM 32.3917 -96.8400 290° West 257 296 7,600 -700 Descending Fort Worth Center
Fri 12:34:15 AM 32.4294 -96.9064 304° West 246 283 6,600 -950 Descending Fort Worth Center
Fri 12:35:15 AM 32.4672 -96.9725 304° West 246 283 5,700 -1,000 Descending Fort Worth Center
Fri 12:36:15 AM 32.5008 -97.0342 303° West 236 272 4,600 -850 Descending Fort Worth Center
Fri 12:37:15 AM 32.5386 -97.0831 313° West 217 250 4,000 -550 Descending Fort Worth Center
Fri 12:38:15 AM 32.5764 -97.1372 310° West 205 236 3,500 -500 Descending Fort Worth Center
Fri 12:39:15 AM 32.6161 -97.1864 314° West 205 236 3,000 -250 Descending Fort Worth Center
Fri 12:40:15 AM 32.6600 -97.2258 323° Northwest 195 224 3,000  Level Fort Worth Center
Fri 12:42:27 AM 32.7667 -97.2667 342° North 178 205 3,000  Level Dallas / Fort Worth TRACON
Fri 12:43:27 AM 32.8167 -97.2833 344° North 160 184 3,000  Level Dallas / Fort Worth TRACON
Fri 12:44:27 AM 32.8500 -97.2833 360° North 168 193 3,000 -300 Level Dallas / Fort Worth TRACON
Fri 12:45:27 AM 32.8833 -97.3000 337° Northwest 107 123 2,400 -550 Descending Dallas / Fort Worth TRACON
Fri 12:46:27 AM 32.9167 -97.3000 360° North 113 130 1,900 -550 Descending Dallas / Fort Worth TRACON
Fri 12:47:27 AM 32.9500 -97.3000 360° North 87 100 1,300 -600 Descending Dallas / Fort Worth TRACON
Fri 12:49:00 AM 32.9833 -97.3167 341° North  Level FlightAware Approximate
Fri 12:56:00 AM 32.9876 -97.3188 341° North  Level Estimated

Login

Don't have an account? Register now (free) for customized features, flight alerts, and more!